Time;durP1;ratioP1;P1;durP2;ratioP2;P2;SDS_P1;SDS_P2;PMS_P1;PMS_P2;Temp;Humidity;BMP_temperature;BMP_pressure;BME280_temperature;BME280_humidity;BME280_pressure;Samples;Min_cycle;Max_cycle;Signal;HPM_P1;HPM_P2
2021/06/14 00:00:35;;;;;;;;;;;17.50;71.20;;;;;;5097382;28;19998;-63
2021/06/14 00:03:01;;;;;;;;;;;17.50;71.30;;;;;;5095317;28;19911;-64
2021/06/14 00:05:37;;;;;;;;;;;17.50;71.30;;;;;;5096828;28;19954;-64
2021/06/14 00:08:10;;;;;;;;;;;17.50;71.00;;;;;;5096752;28;20253;-64
2021/06/14 00:10:36;;;;;;;;;;;17.50;71.20;;;;;;5096767;28;20361;-64
2021/06/14 00:13:04;;;;;;;;;;;17.50;70.80;;;;;;5095597;28;19904;-64
2021/06/14 00:15:30;;;;;;;;;;;17.60;70.90;;;;;;5096752;28;19904;-64
2021/06/14 00:17:56;;;;;;;;;;;17.60;71.00;;;;;;5096700;28;19904;-64
2021/06/14 00:20:22;;;;;;;;;;;17.60;70.90;;;;;;5096522;28;19904;-64
2021/06/14 00:22:48;;;;;;;;;;;17.60;71.00;;;;;;5096577;28;20265;-64
2021/06/14 00:25:15;;;;;;;;;;;17.60;71.20;;;;;;5096993;28;20397;-64
2021/06/14 00:27:41;;;;;;;;;;;17.60;71.20;;;;;;5096834;28;19908;-64
2021/06/14 00:30:07;;;;;;;;;;;17.60;71.50;;;;;;5095983;28;19942;-64
2021/06/14 00:32:32;;;;;;;;;;;17.60;71.90;;;;;;5097071;28;19904;-64
2021/06/14 00:34:58;;;;;;;;;;;17.50;72.20;;;;;;5095889;28;19910;-64
2021/06/14 00:37:23;;;;;;;;;;;17.50;72.60;;;;;;5097449;28;20317;-64
2021/06/14 00:39:49;;;;;;;;;;;17.40;72.90;;;;;;5096331;28;19988;-64
2021/06/14 00:42:14;;;;;;;;;;;17.30;73.60;;;;;;5097535;28;20321;-64
2021/06/14 00:44:40;;;;;;;;;;;17.20;73.80;;;;;;5096645;28;20010;-64
2021/06/14 00:47:06;;;;;;;;;;;17.20;74.00;;;;;;5097023;28;19941;-64
2021/06/14 00:49:31;;;;;;;;;;;17.20;74.10;;;;;;5096406;28;20368;-64
2021/06/14 00:51:57;;;;;;;;;;;17.20;74.00;;;;;;5096051;28;19911;-64
2021/06/14 00:54:22;;;;;;;;;;;17.20;73.90;;;;;;5096199;28;19904;-64
2021/06/14 00:56:48;;;;;;;;;;;17.20;74.10;;;;;;5096244;28;19904;-64
2021/06/14 00:59:14;;;;;;;;;;;17.20;74.10;;;;;;5096879;28;20280;-64
2021/06/14 01:01:40;;;;;;;;;;;17.20;74.10;;;;;;5096372;28;19907;-63
2021/06/14 01:04:05;;;;;;;;;;;17.20;74.70;;;;;;5096276;28;19908;-64
2021/06/14 01:06:31;;;;;;;;;;;17.10;74.90;;;;;;5096113;28;19911;-64
2021/06/14 01:08:56;;;;;;;;;;;17.10;75.10;;;;;;5096552;28;19997;-65
2021/06/14 01:11:41;;;;;;;;;;;17.00;75.60;;;;;;5096338;28;19939;-64
2021/06/14 01:14:16;;;;;;;;;;;16.90;76.00;;;;;;5096346;28;19990;-64
2021/06/14 01:16:54;;;;;;;;;;;16.80;76.40;;;;;;5095895;28;19912;-63
2021/06/14 01:19:22;;;;;;;;;;;16.70;76.90;;;;;;5096105;28;19904;-64
2021/06/14 01:22:03;;;;;;;;;;;16.60;77.40;;;;;;5096559;28;19953;-62
2021/06/14 01:24:40;;;;;;;;;;;16.60;77.80;;;;;;5095917;28;19908;-62
2021/06/14 01:27:06;;;;;;;;;;;16.40;78.00;;;;;;5095940;28;20003;-63
2021/06/14 01:29:32;;;;;;;;;;;16.40;78.30;;;;;;5095836;28;19951;-63
2021/06/14 01:31:58;;;;;;;;;;;16.30;78.40;;;;;;5095557;28;19904;-63
2021/06/14 01:34:28;;;;;;;;;;;16.30;78.50;;;;;;5095351;28;19911;-63
2021/06/14 01:36:56;;;;;;;;;;;16.30;78.50;;;;;;5094012;28;19904;-63
2021/06/14 01:39:22;;;;;;;;;;;16.30;78.50;;;;;;5095382;28;19908;-63
2021/06/14 01:41:48;;;;;;;;;;;16.30;78.60;;;;;;5095097;28;19904;-64
2021/06/14 01:44:14;;;;;;;;;;;16.30;78.70;;;;;;5095460;28;19957;-64
2021/06/14 01:46:40;;;;;;;;;;;16.30;78.60;;;;;;5094504;28;19994;-64
2021/06/14 01:49:06;;;;;;;;;;;16.20;78.70;;;;;;5094749;28;20395;-63
2021/06/14 01:51:33;;;;;;;;;;;16.20;78.60;;;;;;5094774;28;19950;-64
2021/06/14 01:54:08;;;;;;;;;;;16.20;79.00;;;;;;5094874;28;20308;-64
2021/06/14 01:56:42;;;;;;;;;;;16.10;79.20;;;;;;5094970;28;19904;-64
2021/06/14 01:59:09;;;;;;;;;;;16.10;79.40;;;;;;5094618;28;19929;-64
2021/06/14 02:01:36;;;;;;;;;;;16.10;79.80;;;;;;5094970;28;19911;-64
2021/06/14 02:04:02;;;;;;;;;;;16.10;80.10;;;;;;5094564;28;19933;-64
2021/06/14 02:06:30;;;;;;;;;;;16.00;80.40;;;;;;5094958;28;20006;-63
2021/06/14 02:08:57;;;;;;;;;;;16.00;80.40;;;;;;5094567;28;19922;-64
2021/06/14 02:11:23;;;;;;;;;;;15.90;81.00;;;;;;5095087;28;19904;-62
2021/06/14 02:13:49;;;;;;;;;;;15.90;81.20;;;;;;5094965;28;19989;-61
2021/06/14 02:16:15;;;;;;;;;;;15.80;81.40;;;;;;5093072;28;19935;-63
2021/06/14 02:18:41;;;;;;;;;;;15.70;81.80;;;;;;5094425;28;19959;-63
2021/06/14 02:21:07;;;;;;;;;;;15.60;82.40;;;;;;5094552;28;19904;-63
2021/06/14 02:23:32;;;;;;;;;;;15.50;83.00;;;;;;5093938;28;19908;-62
2021/06/14 02:25:58;;;;;;;;;;;15.30;83.80;;;;;;5094314;28;20375;-63
2021/06/14 02:28:23;;;;;;;;;;;15.20;84.40;;;;;;5096063;28;20268;-62
2021/06/14 02:30:49;;;;;;;;;;;15.10;84.90;;;;;;5095665;28;19916;-63
2021/06/14 02:33:14;;;;;;;;;;;15.10;85.40;;;;;;5093119;28;19911;-63
2021/06/14 02:35:40;;;;;;;;;;;15.00;85.80;;;;;;5094197;28;20308;-63
2021/06/14 02:38:06;;;;;;;;;;;15.00;86.20;;;;;;5094705;28;19926;-65
2021/06/14 02:40:32;;;;;;;;;;;14.90;86.60;;;;;;5094089;28;19915;-63
2021/06/14 02:43:03;;;;;;;;;;;14.90;87.00;;;;;;5094379;28;20279;-63
2021/06/14 02:45:29;;;;;;;;;;;14.80;87.30;;;;;;5093804;28;19904;-63
2021/06/14 02:47:55;;;;;;;;;;;14.80;87.80;;;;;;5094080;28;19911;-64
2021/06/14 02:50:22;;;;;;;;;;;14.70;88.30;;;;;;5093978;28;19908;-64
2021/06/14 02:52:50;;;;;;;;;;;14.70;88.80;;;;;;5093719;28;19904;-64
2021/06/14 02:55:17;;;;;;;;;;;14.70;89.30;;;;;;5094132;28;19910;-63
2021/06/14 02:57:49;;;;;;;;;;;14.70;89.80;;;;;;5093371;28;19908;-61
2021/06/14 03:00:15;;;;;;;;;;;14.70;90.10;;;;;;5094191;28;19911;-63
2021/06/14 03:02:41;;;;;;;;;;;14.60;90.50;;;;;;5092945;28;20281;-63
2021/06/14 03:05:07;;;;;;;;;;;14.50;90.80;;;;;;5093787;28;19904;-64
2021/06/14 03:07:33;;;;;;;;;;;14.60;91.10;;;;;;5093732;28;20361;-64
2021/06/14 03:09:58;;;;;;;;;;;14.40;91.40;;;;;;5093573;28;20002;-64
2021/06/14 03:12:25;;;;;;;;;;;14.40;91.80;;;;;;5094003;28;19999;-65
2021/06/14 03:14:50;;;;;;;;;;;14.30;92.20;;;;;;5093792;28;19908;-64
2021/06/14 03:17:16;;;;;;;;;;;14.30;92.40;;;;;;5093536;28;20347;-64
2021/06/14 03:19:44;;;;;;;;;;;14.30;92.50;;;;;;5093724;28;19908;-64
2021/06/14 03:22:10;;;;;;;;;;;14.30;92.70;;;;;;5092272;28;19962;-63
2021/06/14 03:24:37;;;;;;;;;;;14.30;92.70;;;;;;5093679;28;20376;-63
2021/06/14 03:27:04;;;;;;;;;;;14.30;92.80;;;;;;5093771;28;19911;-65
2021/06/14 03:29:30;;;;;;;;;;;14.30;92.90;;;;;;5093412;28;20329;-64
2021/06/14 03:31:55;;;;;;;;;;;14.30;92.90;;;;;;5093556;28;19904;-63
2021/06/14 03:34:22;;;;;;;;;;;14.30;93.10;;;;;;5093370;28;19930;-63
2021/06/14 03:36:48;;;;;;;;;;;14.30;93.20;;;;;;5093255;28;19911;-63
2021/06/14 03:39:17;;;;;;;;;;;14.30;93.40;;;;;;5093212;28;19904;-64
2021/06/14 03:41:46;;;;;;;;;;;14.20;93.60;;;;;;5092073;28;19904;-64
2021/06/14 03:44:12;;;;;;;;;;;14.20;93.70;;;;;;5093451;28;20045;-64
2021/06/14 03:46:37;;;;;;;;;;;14.20;93.90;;;;;;5093324;28;19957;-64
2021/06/14 03:49:03;;;;;;;;;;;14.20;94.00;;;;;;5093165;28;19954;-63
2021/06/14 03:51:29;;;;;;;;;;;14.20;94.00;;;;;;5093511;28;19947;-63
2021/06/14 03:53:57;;;;;;;;;;;14.20;94.10;;;;;;5093277;28;20378;-63
2021/06/14 03:56:23;;;;;;;;;;;14.20;94.10;;;;;;5093579;28;20415;-64
2021/06/14 03:58:49;;;;;;;;;;;14.20;94.10;;;;;;5093643;28;19904;-64
2021/06/14 04:01:15;;;;;;;;;;;14.30;94.20;;;;;;5093336;28;20269;-64
2021/06/14 04:03:42;;;;;;;;;;;14.30;94.20;;;;;;5093118;28;19912;-64
2021/06/14 04:06:08;;;;;;;;;;;14.20;94.30;;;;;;5093459;28;20002;-64
2021/06/14 04:08:36;;;;;;;;;;;14.20;94.50;;;;;;5094107;28;19947;-64
2021/06/14 04:11:02;;;;;;;;;;;14.20;94.70;;;;;;5096623;28;20423;-64
2021/06/14 04:13:28;;;;;;;;;;;14.20;94.70;;;;;;5096756;28;19999;-63
2021/06/14 04:15:53;;;;;;;;;;;14.20;94.70;;;;;;5096521;28;19970;-63
2021/06/14 04:18:19;;;;;;;;;;;14.30;94.60;;;;;;5096535;28;19908;-63
2021/06/14 04:20:44;;;;;;;;;;;14.40;94.50;;;;;;5096634;28;19904;-63
2021/06/14 04:23:10;;;;;;;;;;;14.50;94.50;;;;;;5096456;28;20292;-63
2021/06/14 04:25:35;;;;;;;;;;;14.60;94.10;;;;;;5096496;28;19951;-63
2021/06/14 04:28:02;;;;;;;;;;;14.70;93.80;;;;;;5100015;28;19904;-63
2021/06/14 04:30:28;;;;;;;;;;;14.70;93.80;;;;;;5096996;28;19912;-62
2021/06/14 04:32:53;;;;;;;;;;;14.80;93.70;;;;;;5096508;28;19910;-64
2021/06/14 04:35:19;;;;;;;;;;;14.90;93.60;;;;;;5096411;28;19908;-64
2021/06/14 04:37:45;;;;;;;;;;;14.90;93.60;;;;;;5096549;28;20082;-64
2021/06/14 04:40:11;;;;;;;;;;;14.90;93.60;;;;;;5094952;28;20284;-64
2021/06/14 04:42:37;;;;;;;;;;;15.00;93.70;;;;;;5096047;28;19923;-62
2021/06/14 04:45:03;;;;;;;;;;;15.10;93.80;;;;;;5096163;28;19904;-61
2021/06/14 04:47:28;;;;;;;;;;;15.10;93.70;;;;;;5095816;28;19904;-60
2021/06/14 04:49:54;;;;;;;;;;;15.20;93.50;;;;;;5095760;28;19946;-60
2021/06/14 04:52:19;;;;;;;;;;;15.30;93.30;;;;;;5096140;28;19939;-63
2021/06/14 04:54:45;;;;;;;;;;;15.40;92.90;;;;;;5095927;28;20010;-63
2021/06/14 04:57:10;;;;;;;;;;;15.50;92.70;;;;;;5096459;28;20344;-62
2021/06/14 04:59:36;;;;;;;;;;;15.60;92.30;;;;;;5095719;28;19912;-60
2021/06/14 05:02:02;;;;;;;;;;;15.70;92.40;;;;;;5095702;28;19904;-61
2021/06/14 05:04:27;;;;;;;;;;;15.70;92.50;;;;;;5095175;28;20004;-59
2021/06/14 05:06:53;;;;;;;;;;;15.80;92.40;;;;;;5095913;28;20344;-63
2021/06/14 05:09:19;;;;;;;;;;;15.80;92.30;;;;;;5095654;28;19930;-63
2021/06/14 05:11:47;;;;;;;;;;;15.90;92.30;;;;;;5095559;28;19911;-63
2021/06/14 05:14:12;;;;;;;;;;;15.90;92.40;;;;;;5095627;28;19911;-64
2021/06/14 05:16:38;;;;;;;;;;;15.90;92.50;;;;;;5094091;28;19904;-64
2021/06/14 05:19:03;;;;;;;;;;;16.00;92.50;;;;;;5095305;28;20373;-63
2021/06/14 05:21:29;;;;;;;;;;;16.10;92.30;;;;;;5094890;28;19924;-63
2021/06/14 05:23:54;;;;;;;;;;;16.20;92.10;;;;;;5095480;28;19908;-63
2021/06/14 05:26:20;;;;;;;;;;;16.40;91.30;;;;;;5095452;28;20339;-64
2021/06/14 05:28:45;;;;;;;;;;;16.60;91.20;;;;;;5094901;28;19969;-64
2021/06/14 05:31:11;;;;;;;;;;;16.60;90.90;;;;;;5095944;28;20003;-66
2021/06/14 05:33:37;;;;;;;;;;;16.70;90.90;;;;;;5095477;28;19988;-67
2021/06/14 05:36:03;;;;;;;;;;;16.70;91.00;;;;;;5094891;28;19911;-65
2021/06/14 05:38:29;;;;;;;;;;;16.80;90.90;;;;;;5093590;28;20273;-65
2021/06/14 05:40:54;;;;;;;;;;;16.80;90.80;;;;;;5094722;28;20069;-66
2021/06/14 05:43:20;;;;;;;;;;;16.90;90.90;;;;;;5093601;28;19931;-66
2021/06/14 05:45:45;;;;;;;;;;;17.00;90.90;;;;;;5093788;28;20399;-68
2021/06/14 05:48:11;;;;;;;;;;;17.00;90.80;;;;;;5095062;28;20264;-67
2021/06/14 05:50:37;;;;;;;;;;;17.20;90.60;;;;;;5093988;28;19911;-66
2021/06/14 05:53:02;;;;;;;;;;;17.30;90.80;;;;;;5095448;28;19904;-66
2021/06/14 05:55:28;;;;;;;;;;;17.30;90.90;;;;;;5094660;28;19904;-66
2021/06/14 05:57:54;;;;;;;;;;;17.40;90.50;;;;;;5095272;28;19904;-67
2021/06/14 06:00:20;;;;;;;;;;;17.50;90.60;;;;;;5094688;28;19904;-66
2021/06/14 06:02:45;;;;;;;;;;;17.50;90.60;;;;;;5094425;28;19904;-67
2021/06/14 06:05:12;;;;;;;;;;;17.60;90.30;;;;;;5094693;28;19904;-66
2021/06/14 06:07:37;;;;;;;;;;;17.70;90.40;;;;;;5094880;28;19943;-66
2021/06/14 06:10:07;;;;;;;;;;;17.80;89.30;;;;;;5093294;28;19910;-68
2021/06/14 06:12:32;;;;;;;;;;;17.80;88.70;;;;;;5094852;28;19911;-66
2021/06/14 06:14:58;;;;;;;;;;;17.90;88.90;;;;;;5094386;28;19904;-66
2021/06/14 06:17:23;;;;;;;;;;;18.00;88.60;;;;;;5094819;28;19960;-67
2021/06/14 06:19:49;;;;;;;;;;;18.10;87.90;;;;;;5093994;28;19904;-67
2021/06/14 06:22:14;;;;;;;;;;;18.20;88.00;;;;;;5094711;28;19965;-68
2021/06/14 06:24:40;;;;;;;;;;;18.30;87.50;;;;;;5095361;28;20281;-66
2021/06/14 06:27:06;;;;;;;;;;;18.30;87.70;;;;;;5094304;28;20348;-67
2021/06/14 06:29:31;;;;;;;;;;;18.40;87.80;;;;;;5094088;28;20288;-67
2021/06/14 06:31:57;;;;;;;;;;;18.40;87.90;;;;;;5094297;28;19911;-67
2021/06/14 06:34:23;;;;;;;;;;;18.60;87.50;;;;;;5093805;28;19911;-66
2021/06/14 06:36:48;;;;;;;;;;;18.70;87.70;;;;;;5094121;28;20272;-68
2021/06/14 06:39:14;;;;;;;;;;;18.70;87.00;;;;;;5094048;28;19904;-66
2021/06/14 06:41:40;;;;;;;;;;;18.80;86.10;;;;;;5093964;28;20280;-68
2021/06/14 06:44:07;;;;;;;;;;;19.00;85.40;;;;;;5095613;28;19908;-67
2021/06/14 06:46:32;;;;;;;;;;;19.10;84.60;;;;;;5094203;28;19904;-68
2021/06/14 06:48:58;;;;;;;;;;;19.20;83.90;;;;;;5094324;28;19911;-67
2021/06/14 06:51:23;;;;;;;;;;;19.30;83.70;;;;;;5094446;28;19986;-67
2021/06/14 06:53:48;;;;;;;;;;;19.40;83.20;;;;;;5093834;28;19904;-67
2021/06/14 06:56:14;;;;;;;;;;;19.50;82.80;;;;;;5093493;28;19911;-68
2021/06/14 06:58:40;;;;;;;;;;;19.70;82.00;;;;;;5093569;28;20349;-66
2021/06/14 07:01:05;;;;;;;;;;;19.80;82.00;;;;;;5093908;28;19904;-66
2021/06/14 07:03:31;;;;;;;;;;;19.90;81.30;;;;;;5093985;28;19919;-67
2021/06/14 07:05:56;;;;;;;;;;;20.00;81.60;;;;;;5094206;28;20353;-67
2021/06/14 07:08:22;;;;;;;;;;;20.10;81.00;;;;;;5092887;28;20326;-68
2021/06/14 07:10:47;;;;;;;;;;;20.10;81.20;;;;;;5093685;28;19904;-67
2021/06/14 07:13:16;;;;;;;;;;;20.10;81.30;;;;;;5094107;28;19927;-65
2021/06/14 07:15:41;;;;;;;;;;;20.20;81.30;;;;;;5093757;28;19958;-64
2021/06/14 07:18:07;;;;;;;;;;;20.40;80.80;;;;;;5094735;28;20361;-67
2021/06/14 07:20:32;;;;;;;;;;;20.40;81.10;;;;;;5095459;28;20284;-66
2021/06/14 07:22:58;;;;;;;;;;;20.50;80.80;;;;;;5095659;28;19914;-66
2021/06/14 07:25:23;;;;;;;;;;;20.50;80.40;;;;;;5095859;28;19904;-66
2021/06/14 07:27:49;;;;;;;;;;;20.60;79.90;;;;;;5095873;28;19995;-66
2021/06/14 07:30:15;;;;;;;;;;;20.80;79.90;;;;;;5095878;28;19939;-67
2021/06/14 07:32:41;;;;;;;;;;;20.80;80.00;;;;;;5094538;28;20312;-66
2021/06/14 07:35:07;;;;;;;;;;;21.00;78.70;;;;;;5096270;28;19904;-64
2021/06/14 07:37:32;;;;;;;;;;;21.10;79.40;;;;;;5094691;28;19904;-65
2021/06/14 07:39:58;;;;;;;;;;;21.10;78.10;;;;;;5096388;28;20006;-65
2021/06/14 07:42:24;;;;;;;;;;;21.20;78.30;;;;;;5094690;28;19961;-66
2021/06/14 07:44:49;;;;;;;;;;;21.90;76.70;;;;;;5099579;28;20374;-66
2021/06/14 07:47:15;;;;;;;;;;;23.40;74.30;;;;;;5098202;28;20326;-65
2021/06/14 07:49:42;;;;;;;;;;;25.10;70.20;;;;;;5098094;28;20396;-66
2021/06/14 07:52:08;;;;;;;;;;;26.40;66.20;;;;;;5098343;28;19904;-66
2021/06/14 07:54:33;;;;;;;;;;;26.40;65.30;;;;;;5098362;28;19911;-66
2021/06/14 07:56:59;;;;;;;;;;;26.50;65.40;;;;;;5098592;28;19903;-66
2021/06/14 07:59:25;;;;;;;;;;;26.30;64.60;;;;;;5097236;28;19911;-68
2021/06/14 08:01:52;;;;;;;;;;;25.80;65.10;;;;;;5098842;28;19908;-68
2021/06/14 08:04:18;;;;;;;;;;;25.20;66.30;;;;;;5096929;28;19908;-67
2021/06/14 08:06:43;;;;;;;;;;;25.50;66.20;;;;;;5098467;28;20319;-65
2021/06/14 08:09:12;;;;;;;;;;;26.90;64.10;;;;;;5098144;28;19904;-67
2021/06/14 08:11:38;;;;;;;;;;;28.10;62.30;;;;;;5098242;28;20279;-67
2021/06/14 08:14:05;;;;;;;;;;;29.50;59.90;;;;;;5098944;28;20002;-66
2021/06/14 08:16:31;;;;;;;;;;;30.30;58.60;;;;;;5098637;28;20288;-66
2021/06/14 08:21:47;;;;;;;;;;;31.60;55.00;;;;;;5099084;28;20308;-66
2021/06/14 08:26:57;;;;;;;;;;;33.30;53.10;;;;;;5097220;28;19927;-65
2021/06/14 08:29:22;;;;;;;;;;;34.60;50.60;;;;;;5096487;28;20380;-66
2021/06/14 08:31:48;;;;;;;;;;;35.20;49.20;;;;;;5096370;28;19904;-66
2021/06/14 08:34:13;;;;;;;;;;;34.10;49.20;;;;;;5097078;28;19910;-66
2021/06/14 08:36:40;;;;;;;;;;;33.10;49.90;;;;;;5095926;28;19904;-66
2021/06/14 08:39:07;;;;;;;;;;;32.20;50.10;;;;;;5096974;28;19911;-66
2021/06/14 08:41:32;;;;;;;;;;;32.90;50.40;;;;;;5096799;28;20379;-67
2021/06/14 08:43:58;;;;;;;;;;;33.50;49.50;;;;;;5096989;28;19908;-67
2021/06/14 08:46:25;;;;;;;;;;;33.00;49.40;;;;;;5096878;28;19904;-67
2021/06/14 08:48:50;;;;;;;;;;;33.10;49.60;;;;;;5096329;28;19926;-66
2021/06/14 08:51:16;;;;;;;;;;;32.30;50.00;;;;;;5094696;28;20310;-66
2021/06/14 08:53:42;;;;;;;;;;;32.30;49.70;;;;;;5096326;28;19904;-65
2021/06/14 08:56:08;;;;;;;;;;;33.30;49.50;;;;;;5094840;28;19957;-66
2021/06/14 08:58:34;;;;;;;;;;;34.30;48.70;;;;;;5096054;28;19904;-66
2021/06/14 09:01:00;;;;;;;;;;;34.20;48.40;;;;;;5095699;28;19904;-66
2021/06/14 09:03:26;;;;;;;;;;;34.80;47.50;;;;;;5095737;28;19908;-67
2021/06/14 09:05:51;;;;;;;;;;;33.80;47.70;;;;;;5095778;28;20284;-66
2021/06/14 09:08:22;;;;;;;;;;;32.90;48.90;;;;;;5095790;28;19994;-66
2021/06/14 09:10:47;;;;;;;;;;;33.10;48.70;;;;;;5095845;28;19908;-67
2021/06/14 09:13:23;;;;;;;;;;;32.50;48.90;;;;;;5095561;28;20399;-66
2021/06/14 09:15:53;;;;;;;;;;;32.20;49.50;;;;;;5095998;28;20272;-66
2021/06/14 09:18:20;;;;;;;;;;;31.80;50.00;;;;;;5095247;28;20387;-66
2021/06/14 09:21:00;;;;;;;;;;;32.00;50.10;;;;;;5095636;28;20336;-66
2021/06/14 09:23:37;;;;;;;;;;;33.30;49.00;;;;;;5095260;28;19988;-65
2021/06/14 09:26:02;;;;;;;;;;;33.20;48.20;;;;;;5095404;28;19992;-66
2021/06/14 09:28:28;;;;;;;;;;;32.60;48.20;;;;;;5095616;28;19904;-66
2021/06/14 09:30:53;;;;;;;;;;;32.80;48.90;;;;;;5096220;28;19912;-66
2021/06/14 09:33:23;;;;;;;;;;;34.10;47.60;;;;;;5094878;28;19904;-66
2021/06/14 09:35:50;;;;;;;;;;;34.90;47.00;;;;;;5096395;28;19910;-66
2021/06/14 09:38:17;;;;;;;;;;;35.60;45.70;;;;;;5094251;28;19904;-66
2021/06/14 09:40:52;;;;;;;;;;;34.90;45.60;;;;;;5095506;28;19904;-66
2021/06/14 09:43:37;;;;;;;;;;;34.30;46.50;;;;;;5096236;28;19942;-66
2021/06/14 09:46:17;;;;;;;;;;;34.40;45.90;;;;;;5096482;28;19927;-66
2021/06/14 09:48:42;;;;;;;;;;;34.90;45.60;;;;;;5095105;28;19904;-65
2021/06/14 09:51:08;;;;;;;;;;;34.70;45.40;;;;;;5095897;28;20250;-66
2021/06/14 09:53:41;;;;;;;;;;;33.90;45.90;;;;;;5095842;28;19911;-66
2021/06/14 09:56:15;;;;;;;;;;;34.00;46.20;;;;;;5095879;28;19929;-66
2021/06/14 09:58:42;;;;;;;;;;;34.90;45.30;;;;;;5095598;28;19986;-65
2021/06/14 10:01:08;;;;;;;;;;;35.20;44.90;;;;;;5095897;28;19908;-67
2021/06/14 10:03:39;;;;;;;;;;;35.30;44.80;;;;;;5095381;28;19918;-65
2021/06/14 10:06:05;;;;;;;;;;;35.80;44.40;;;;;;5093373;28;19912;-66
2021/06/14 10:08:32;;;;;;;;;;;35.50;44.30;;;;;;5096393;28;19908;-66
2021/06/14 10:11:11;;;;;;;;;;;35.50;44.00;;;;;;5094099;28;19904;-66
2021/06/14 10:13:41;;;;;;;;;;;34.80;44.40;;;;;;5095964;28;19908;-65
2021/06/14 10:16:08;;;;;;;;;;;36.00;44.20;;;;;;5095978;28;20041;-66
2021/06/14 10:18:36;;;;;;;;;;;37.40;43.00;;;;;;5095297;28;19962;-66
2021/06/14 10:21:02;;;;;;;;;;;38.40;41.30;;;;;;5095166;28;19939;-66
2021/06/14 10:23:28;;;;;;;;;;;37.00;41.50;;;;;;5095256;28;19930;-66
2021/06/14 10:25:57;;;;;;;;;;;36.40;41.90;;;;;;5095487;28;19999;-66
2021/06/14 10:28:24;;;;;;;;;;;36.40;42.40;;;;;;5094338;28;20331;-66
2021/06/14 10:30:50;;;;;;;;;;;36.50;42.00;;;;;;5092463;28;19918;-65
2021/06/14 10:33:16;;;;;;;;;;;35.90;42.50;;;;;;5094801;28;19904;-66
2021/06/14 10:35:41;;;;;;;;;;;34.90;42.90;;;;;;5094957;28;19908;-65
2021/06/14 10:38:07;;;;;;;;;;;34.80;43.40;;;;;;5095149;28;20281;-65
2021/06/14 10:40:34;;;;;;;;;;;35.10;43.10;;;;;;5094023;28;20371;-65
2021/06/14 10:43:00;;;;;;;;;;;36.40;42.30;;;;;;5093999;28;19911;-65
2021/06/14 10:45:27;;;;;;;;;;;36.50;41.30;;;;;;5094153;28;19904;-67
2021/06/14 10:47:53;;;;;;;;;;;35.70;42.10;;;;;;5094356;28;20007;-66
2021/06/14 10:50:20;;;;;;;;;;;35.70;42.00;;;;;;5092050;28;19911;-66
2021/06/14 10:52:48;;;;;;;;;;;36.00;42.60;;;;;;5093927;28;19961;-66
2021/06/14 10:55:16;;;;;;;;;;;36.20;41.80;;;;;;5092463;28;19930;-66
2021/06/14 10:57:41;;;;;;;;;;;36.20;41.20;;;;;;5093815;28;20034;-66
2021/06/14 11:00:24;;;;;;;;;;;35.30;41.90;;;;;;5092688;28;19928;-66
2021/06/14 11:02:50;;;;;;;;;;;34.90;41.80;;;;;;5094008;28;20397;-66
2021/06/14 11:05:26;;;;;;;;;;;34.10;42.30;;;;;;5093721;28;19994;-66
2021/06/14 11:07:51;;;;;;;;;;;34.60;42.20;;;;;;5093463;28;19987;-67
2021/06/14 11:10:22;;;;;;;;;;;33.70;41.90;;;;;;5093614;28;20414;-67
2021/06/14 11:12:48;;;;;;;;;;;32.40;43.80;;;;;;5093685;28;19999;-66
2021/06/14 11:15:14;;;;;;;;;;;30.80;44.40;;;;;;5093515;28;19940;-67
2021/06/14 11:17:39;;;;;;;;;;;29.70;45.90;;;;;;5093545;28;19962;-66
2021/06/14 11:20:09;;;;;;;;;;;29.30;46.20;;;;;;5096923;28;19936;-67
2021/06/14 11:22:42;;;;;;;;;;;29.00;46.50;;;;;;5097659;28;19974;-67
2021/06/14 11:25:24;;;;;;;;;;;28.60;47.10;;;;;;5097688;28;19953;-67
2021/06/14 11:27:49;;;;;;;;;;;28.30;47.40;;;;;;5097774;28;20354;-65
2021/06/14 11:30:17;;;;;;;;;;;28.30;47.50;;;;;;5096316;28;19950;-66
2021/06/14 11:32:42;;;;;;;;;;;28.30;47.90;;;;;;5097307;28;19908;-65
2021/06/14 11:35:08;;;;;;;;;;;28.30;48.60;;;;;;5097080;28;20007;-66
2021/06/14 11:37:44;;;;;;;;;;;28.20;49.00;;;;;;5097679;28;19904;-68
2021/06/14 11:40:11;;;;;;;;;;;28.20;49.10;;;;;;5097750;28;19940;-67
2021/06/14 11:42:43;;;;;;;;;;;28.00;49.30;;;;;;5097872;28;19991;-66
2021/06/14 11:45:20;;;;;;;;;;;27.80;49.70;;;;;;5097584;28;20416;-66
2021/06/14 11:47:46;;;;;;;;;;;27.70;50.20;;;;;;5097462;28;19939;-65
2021/06/14 11:50:11;;;;;;;;;;;27.50;49.40;;;;;;5097295;28;19908;-67
2021/06/14 11:52:38;;;;;;;;;;;27.40;49.70;;;;;;5097308;28;19904;-66
2021/06/14 11:55:08;;;;;;;;;;;27.40;50.00;;;;;;5097690;28;19904;-68
2021/06/14 11:57:35;;;;;;;;;;;27.30;50.60;;;;;;5097615;28;19995;-67
2021/06/14 12:00:01;;;;;;;;;;;27.30;49.70;;;;;;5096720;28;19904;-67
2021/06/14 12:02:28;;;;;;;;;;;27.30;50.10;;;;;;5096746;28;19910;-65
2021/06/14 12:04:54;;;;;;;;;;;27.20;49.70;;;;;;5097214;28;19908;-67
2021/06/14 12:07:26;;;;;;;;;;;27.10;50.10;;;;;;5097391;28;19904;-66
2021/06/14 12:09:53;;;;;;;;;;;27.10;49.90;;;;;;5097151;28;19951;-66
2021/06/14 12:12:19;;;;;;;;;;;27.10;49.80;;;;;;5097606;28;19904;-69
2021/06/14 12:14:52;;;;;;;;;;;27.10;48.80;;;;;;5099767;28;19927;-70
2021/06/14 12:17:22;;;;;;;;;;;27.10;49.20;;;;;;5096367;28;19911;-68
2021/06/14 12:19:48;;;;;;;;;;;27.10;48.70;;;;;;5096733;28;19908;-67
2021/06/14 12:22:18;;;;;;;;;;;27.20;48.70;;;;;;5096529;28;19904;-68
2021/06/14 12:24:44;;;;;;;;;;;27.20;48.50;;;;;;5096853;28;19915;-67
2021/06/14 12:27:09;;;;;;;;;;;27.10;48.80;;;;;;5095986;28;19904;-67
2021/06/14 12:29:35;;;;;;;;;;;27.20;48.60;;;;;;5095771;28;20333;-67
2021/06/14 12:32:09;;;;;;;;;;;27.20;48.20;;;;;;5096423;28;19951;-67
2021/06/14 12:34:37;;;;;;;;;;;27.20;48.40;;;;;;5096014;28;19903;-67
2021/06/14 12:37:10;;;;;;;;;;;27.40;48.40;;;;;;5096485;28;20357;-67
2021/06/14 12:39:36;;;;;;;;;;;27.40;48.20;;;;;;5095829;28;20007;-67
2021/06/14 12:42:01;;;;;;;;;;;27.50;47.90;;;;;;5096119;28;20007;-67
2021/06/14 12:44:27;;;;;;;;;;;27.50;47.80;;;;;;5096232;28;19943;-68
2021/06/14 12:46:53;;;;;;;;;;;27.50;47.90;;;;;;5095650;28;19911;-67
2021/06/14 12:49:22;;;;;;;;;;;27.50;47.80;;;;;;5096185;28;20341;-67
2021/06/14 12:51:48;;;;;;;;;;;27.50;47.80;;;;;;5105789;28;19904;-66
2021/06/14 12:54:14;;;;;;;;;;;27.60;47.90;;;;;;5095952;28;19934;-67
2021/06/14 12:56:39;;;;;;;;;;;27.60;48.10;;;;;;5095509;28;19911;-68
2021/06/14 12:59:05;;;;;;;;;;;27.70;48.10;;;;;;5095091;28;20385;-67
2021/06/14 13:01:35;;;;;;;;;;;27.70;47.40;;;;;;5095502;28;19908;-66
2021/06/14 13:04:01;;;;;;;;;;;27.70;47.60;;;;;;5094027;28;19945;-67
2021/06/14 13:06:30;;;;;;;;;;;27.70;48.00;;;;;;5095471;28;19908;-67
2021/06/14 13:08:58;;;;;;;;;;;27.80;47.70;;;;;;5094207;28;19915;-67
2021/06/14 13:11:24;;;;;;;;;;;27.80;47.50;;;;;;5096382;28;19987;-68
2021/06/14 13:13:50;;;;;;;;;;;27.80;48.00;;;;;;5095830;28;20325;-66
2021/06/14 13:16:20;;;;;;;;;;;27.80;47.50;;;;;;5094828;28;20238;-66
2021/06/14 13:18:56;;;;;;;;;;;27.80;48.10;;;;;;5095547;28;19904;-66
2021/06/14 13:21:24;;;;;;;;;;;27.70;48.20;;;;;;5095237;28;20013;-66
2021/06/14 13:23:51;;;;;;;;;;;27.70;48.40;;;;;;5095647;28;19907;-65
2021/06/14 13:26:18;;;;;;;;;;;27.70;47.80;;;;;;5094119;28;19904;-66
2021/06/14 13:28:43;;;;;;;;;;;27.70;48.70;;;;;;5095052;28;20290;-66
2021/06/14 13:31:15;;;;;;;;;;;27.70;49.20;;;;;;5095837;28;20053;-66
2021/06/14 13:33:44;;;;;;;;;;;27.80;49.00;;;;;;5095904;28;19909;-65
2021/06/14 13:36:14;;;;;;;;;;;27.90;49.40;;;;;;5095685;28;19923;-66
2021/06/14 13:38:40;;;;;;;;;;;28.00;48.40;;;;;;5096007;28;20319;-67
2021/06/14 13:41:27;;;;;;;;;;;28.00;48.20;;;;;;5094315;28;19908;-67
2021/06/14 13:44:03;;;;;;;;;;;28.00;48.00;;;;;;5094707;28;19947;-66
2021/06/14 13:46:41;;;;;;;;;;;28.00;48.00;;;;;;5094567;28;19904;-67
2021/06/14 13:49:06;;;;;;;;;;;28.00;48.50;;;;;;5094689;28;20049;-65
2021/06/14 13:51:32;;;;;;;;;;;28.00;49.10;;;;;;5094935;28;19944;-67
2021/06/14 13:54:00;;;;;;;;;;;28.10;49.40;;;;;;5094960;28;19989;-67
2021/06/14 13:56:33;;;;;;;;;;;28.20;49.20;;;;;;5095034;28;19953;-68
2021/06/14 13:58:58;;;;;;;;;;;28.20;48.20;;;;;;5093387;28;20293;-66
2021/06/14 14:01:26;;;;;;;;;;;28.10;48.30;;;;;;5095165;28;20006;-66
2021/06/14 14:04:05;;;;;;;;;;;28.20;47.80;;;;;;5094825;28;19912;-67
2021/06/14 14:06:31;;;;;;;;;;;28.30;48.10;;;;;;5095048;28;19911;-67
2021/06/14 14:08:57;;;;;;;;;;;28.40;48.60;;;;;;5095128;28;19908;-68
2021/06/14 14:11:23;;;;;;;;;;;28.40;47.90;;;;;;5096217;28;20326;-68
2021/06/14 14:13:55;;;;;;;;;;;28.30;48.20;;;;;;5096289;28;19953;-68
2021/06/14 14:16:21;;;;;;;;;;;28.40;48.20;;;;;;5097237;28;19904;-68
2021/06/14 14:18:46;;;;;;;;;;;28.40;48.00;;;;;;5097208;28;19911;-70
2021/06/14 14:21:12;;;;;;;;;;;28.50;48.30;;;;;;5095283;28;19911;-68